Time;durP1;ratioP1;P1;durP2;ratioP2;P2;SDS_P1;SDS_P2;PMS_P1;PMS_P2;Temp;Humidity;BMP_temperature;BMP_pressure;BME280_temperature;BME280_humidity;BME280_pressure;Samples;Min_cycle;Max_cycle;Signal;HPM_P1;HPM_P2
2023/12/02 00:00:06;;;;;;;8.90;5.50;;;;;;;17.26;52.73;96891.11;105378;1259;61289;-33
2023/12/02 00:02:40;;;;;;;5.90;5.30;;;;;;;17.27;52.70;96887.70;105261;1261;74606;-33
2023/12/02 00:05:07;;;;;;;5.80;5.30;;;;;;;17.26;52.65;96879.95;105355;1261;65906;-34
2023/12/02 00:07:35;;;;;;;6.80;6.10;;;;;;;17.25;52.66;96870.67;105243;1262;73145;-35
2023/12/02 00:10:04;;;;;;;6.40;5.80;;;;;;;17.26;52.61;96868.75;105302;1261;61283;-32
2023/12/02 00:12:31;;;;;;;6.00;5.40;;;;;;;17.25;52.68;96867.11;105247;1261;61243;-32
2023/12/02 00:14:59;;;;;;;6.10;5.50;;;;;;;17.25;52.68;96869.11;105190;1259;73793;-32
2023/12/02 00:17:26;;;;;;;5.80;5.30;;;;;;;17.25;52.58;96888.85;105265;1262;67159;-32
2023/12/02 00:19:53;;;;;;;6.00;5.50;;;;;;;17.26;52.61;96903.08;105186;1261;72431;-32
2023/12/02 00:22:21;;;;;;;6.10;5.50;;;;;;;17.25;52.64;96891.23;105378;1262;61255;-32
2023/12/02 00:24:48;;;;;;;5.90;5.30;;;;;;;17.25;52.66;96895.95;105222;1260;61266;-32
2023/12/02 00:27:17;;;;;;;5.90;5.20;;;;;;;17.25;52.66;96895.09;105256;1260;74589;-34
2023/12/02 00:29:44;;;;;;;5.70;5.20;;;;;;;17.25;52.71;96891.30;105394;1261;66224;-34
2023/12/02 00:32:11;;;;;;;5.90;5.20;;;;;;;17.25;52.65;96884.50;105179;1257;72613;-32
2023/12/02 00:34:53;;;;;;;5.80;5.30;;;;;;;17.24;52.71;96886.89;105330;1261;61269;-32
2023/12/02 00:37:20;;;;;;;6.10;5.50;;;;;;;17.25;52.67;96880.95;105270;1259;61391;-32
2023/12/02 00:39:48;;;;;;;6.00;5.50;;;;;;;17.25;52.62;96878.00;105532;1260;74561;-32
2023/12/02 00:42:15;;;;;;;5.80;5.20;;;;;;;17.25;52.56;96871.98;105539;1262;65209;-32
2023/12/02 00:44:42;;;;;;;5.80;5.20;;;;;;;17.25;52.61;96866.80;105480;1259;72960;-32
2023/12/02 00:47:09;;;;;;;5.60;5.10;;;;;;;17.25;52.68;96872.81;105496;1263;61234;-34
2023/12/02 00:49:37;;;;;;;6.90;5.70;;;;;;;17.24;52.59;96867.95;105445;1262;61348;-33
2023/12/02 00:52:04;;;;;;;6.40;5.80;;;;;;;17.25;52.55;96864.16;105401;1259;74614;-34
2023/12/02 00:54:36;;;;;;;6.40;5.60;;;;;;;17.25;52.64;96866.41;105413;1261;66185;-33
2023/12/02 00:57:04;;;;;;;6.50;5.80;;;;;;;17.25;52.63;96872.81;105422;1261;72606;-32
2023/12/02 00:59:31;;;;;;;6.40;5.70;;;;;;;17.24;52.60;96874.89;105278;1261;61298;-32
2023/12/02 01:01:58;;;;;;;6.00;5.30;;;;;;;17.25;52.56;96881.48;105434;1259;61334;-33
2023/12/02 01:04:26;;;;;;;5.80;5.20;;;;;;;17.24;52.58;96887.50;105162;1259;74746;-32
2023/12/02 01:06:53;;;;;;;6.60;5.80;;;;;;;17.24;52.62;96891.60;105401;1261;65651;-32
2023/12/02 01:09:21;;;;;;;6.00;5.40;;;;;;;17.24;52.57;96892.52;105317;1259;72620;-32
2023/12/02 01:11:48;;;;;;;6.20;5.40;;;;;;;17.24;52.51;96889.13;105308;1260;61230;-31
2023/12/02 01:14:16;;;;;;;6.20;5.60;;;;;;;17.23;52.55;96885.17;105233;1259;61238;-32
2023/12/02 01:16:43;;;;;;;5.90;5.30;;;;;;;17.24;52.56;96884.17;105282;1261;74290;-33
2023/12/02 01:19:10;;;;;;;6.40;5.30;;;;;;;17.24;52.53;96883.71;105539;1261;66302;-33
2023/12/02 01:21:38;;;;;;;5.70;5.20;;;;;;;17.23;52.54;96881.08;105381;1258;72353;-32
2023/12/02 01:24:06;;;;;;;5.90;5.30;;;;;;;17.22;52.59;96881.60;105391;1262;61175;-33
2023/12/02 01:26:33;;;;;;;6.10;5.50;;;;;;;17.23;52.55;96881.14;105509;1257;61323;-33
2023/12/02 01:29:01;;;;;;;6.00;5.40;;;;;;;17.23;52.47;96879.43;105356;1263;74931;-33
2023/12/02 01:31:28;;;;;;;6.00;5.40;;;;;;;17.22;52.51;96878.27;105374;1262;65655;-33
2023/12/02 01:33:56;;;;;;;6.10;5.10;;;;;;;17.22;52.50;96874.40;105257;1260;72590;-32
2023/12/02 01:36:23;;;;;;;6.20;5.40;;;;;;;17.22;52.56;96877.58;105455;1262;61235;-33
2023/12/02 01:38:51;;;;;;;5.70;5.10;;;;;;;17.22;52.50;96869.52;105244;1262;61337;-34
2023/12/02 01:41:18;;;;;;;6.00;5.40;;;;;;;17.22;52.52;96858.32;105262;1257;74436;-32
2023/12/02 01:43:45;;;;;;;5.60;5.10;;;;;;;17.22;52.53;96857.08;105243;1262;65130;-33
2023/12/02 01:46:13;;;;;;;6.30;5.60;;;;;;;17.21;52.49;96856.54;105317;1258;72618;-32
2023/12/02 01:48:40;;;;;;;7.00;6.00;;;;;;;17.21;52.47;96862.02;105281;1262;61255;-34
2023/12/02 01:51:08;;;;;;;5.90;4.90;;;;;;;17.21;52.51;96858.77;105243;1259;61354;-33
2023/12/02 01:53:37;;;;;;;5.70;5.20;;;;;;;17.21;52.46;96856.53;105258;1262;74444;-32
2023/12/02 01:56:05;;;;;;;6.40;5.40;;;;;;;17.21;52.52;96853.67;105369;1262;64200;-33
2023/12/02 01:58:32;;;;;;;5.80;5.30;;;;;;;17.21;52.45;96851.49;105372;1259;71126;-33
2023/12/02 02:00:59;;;;;;;6.00;5.20;;;;;;;17.21;52.41;96843.61;105327;1262;61261;-33
2023/12/02 02:03:27;;;;;;;6.20;5.60;;;;;;;17.20;52.48;96841.20;105533;1261;61300;-33
2023/12/02 02:05:54;;;;;;;6.70;5.40;;;;;;;17.20;52.51;96845.37;105469;1262;74404;-33
2023/12/02 02:08:21;;;;;;;6.00;5.40;;;;;;;17.20;52.44;96848.08;105391;1260;65838;-32
2023/12/02 02:10:57;;;;;;;7.00;5.30;;;;;;;17.20;52.48;96840.27;105493;1261;73162;-33
2023/12/02 02:13:24;;;;;;;6.60;5.40;;;;;;;17.19;52.45;96843.21;105346;1257;61352;-33
2023/12/02 02:15:52;;;;;;;6.00;5.40;;;;;;;17.20;52.43;96843.82;105423;1262;61314;-33
2023/12/02 02:18:19;;;;;;;5.70;5.10;;;;;;;17.19;52.43;96843.83;105388;1263;74293;-34
2023/12/02 02:20:51;;;;;;;5.70;5.10;;;;;;;17.19;52.42;96838.25;105400;1271;64081;-33
2023/12/02 02:23:19;;;;;;;5.80;5.10;;;;;;;17.20;52.44;96842.43;105219;1263;72503;-32
2023/12/02 02:25:51;;;;;;;6.10;5.50;;;;;;;17.19;52.39;96837.54;105393;1260;61242;-32
2023/12/02 02:28:22;;;;;;;5.70;5.20;;;;;;;17.18;52.42;96840.02;105218;1261;61282;-33
2023/12/02 02:30:49;;;;;;;6.20;5.40;;;;;;;17.18;52.43;96842.56;105420;1261;74943;-32
2023/12/02 02:33:17;;;;;;;6.20;5.50;;;;;;;17.18;52.45;96845.50;105236;1261;66322;-33
2023/12/02 02:35:45;;;;;;;5.90;5.30;;;;;;;17.18;52.47;96840.84;105565;1258;72480;-32
2023/12/02 02:38:12;;;;;;;6.00;5.40;;;;;;;17.18;52.41;96839.85;105261;1262;61337;-33
2023/12/02 02:40:40;;;;;;;5.80;5.20;;;;;;;17.19;52.42;96840.55;105592;1261;61323;-33
2023/12/02 02:43:07;;;;;;;5.80;5.20;;;;;;;17.18;52.48;96837.29;105316;1259;74378;-31
2023/12/02 02:45:34;;;;;;;5.40;4.90;;;;;;;17.17;52.46;96832.02;105723;1261;66097;-33
2023/12/02 02:48:02;;;;;;;6.10;5.50;;;;;;;17.17;52.48;96832.48;105181;1261;72570;-35
2023/12/02 02:50:30;;;;;;;6.50;5.70;;;;;;;17.17;52.46;96833.95;105904;1262;61308;-31
2023/12/02 02:52:57;;;;;;;5.80;5.20;;;;;;;17.18;52.41;96836.43;105263;1259;61283;-31
2023/12/02 02:55:25;;;;;;;5.80;5.20;;;;;;;17.17;52.42;96832.71;105350;1257;74571;-32
2023/12/02 02:57:52;;;;;;;6.00;5.40;;;;;;;17.16;52.40;96836.34;105254;1271;64797;-32
2023/12/02 03:00:21;;;;;;;5.70;5.10;;;;;;;17.16;52.50;96842.52;105494;1262;71684;-33
2023/12/02 03:02:48;;;;;;;6.40;5.40;;;;;;;17.16;52.48;96842.14;105429;1261;61390;-33
2023/12/02 03:05:16;;;;;;;6.40;5.60;;;;;;;17.16;52.48;96849.25;105296;1259;61328;-33
2023/12/02 03:07:43;;;;;;;5.50;5.00;;;;;;;17.16;52.35;96849.31;105252;1263;74586;-33
2023/12/02 03:10:12;;;;;;;5.80;5.20;;;;;;;17.16;52.41;96846.61;105439;1262;65873;-33
2023/12/02 03:12:39;;;;;;;6.00;5.40;;;;;;;17.15;52.39;96846.36;105568;1261;72606;-33
2023/12/02 03:15:07;;;;;;;5.60;5.00;;;;;;;17.16;52.41;96842.44;105280;1262;61225;-33
2023/12/02 03:17:34;;;;;;;5.90;5.30;;;;;;;17.15;52.43;96835.39;105222;1259;61374;-32
2023/12/02 03:20:02;;;;;;;6.70;5.10;;;;;;;17.14;52.42;96832.67;105146;1261;73674;-32
2023/12/02 03:22:29;;;;;;;5.90;5.30;;;;;;;17.15;52.42;96824.64;105536;1261;66237;-33
2023/12/02 03:24:57;;;;;;;6.30;5.30;;;;;;;17.14;52.41;96821.85;105437;1262;72691;-33
2023/12/02 03:27:24;;;;;;;5.70;5.20;;;;;;;17.14;52.43;96818.60;105462;1264;61226;-31
2023/12/02 03:29:51;;;;;;;6.00;5.40;;;;;;;17.14;52.48;96813.25;105165;1262;61305;-34
2023/12/02 03:32:19;;;;;;;6.00;5.40;;;;;;;17.13;52.47;96810.92;105329;1258;74558;-32
2023/12/02 03:34:46;;;;;;;6.70;5.60;;;;;;;17.13;52.46;96814.50;105429;1261;66061;-32
2023/12/02 03:37:13;;;;;;;5.70;5.10;;;;;;;17.12;52.39;96810.07;105298;1260;72698;-33
2023/12/02 03:39:42;;;;;;;5.30;4.90;;;;;;;17.12;52.38;96808.06;105351;1271;61297;-33
2023/12/02 03:42:09;;;;;;;7.00;4.80;;;;;;;17.13;52.41;96807.90;105528;1258;61342;-31
2023/12/02 03:44:37;;;;;;;5.60;5.00;;;;;;;17.12;52.42;96810.38;105332;1261;74577;-32
2023/12/02 03:47:04;;;;;;;5.90;5.30;;;;;;;17.12;52.45;96813.30;105442;1260;65321;-33
2023/12/02 03:49:31;;;;;;;5.50;5.00;;;;;;;17.11;52.37;96812.14;105337;1262;73657;-32
2023/12/02 03:51:59;;;;;;;6.20;5.10;;;;;;;17.11;52.46;96811.75;105361;1260;61224;-33
2023/12/02 03:54:26;;;;;;;5.70;5.00;;;;;;;17.10;52.49;96809.80;105291;1262;61863;-32
2023/12/02 03:56:54;;;;;;;5.50;5.00;;;;;;;17.11;52.46;96811.52;105340;1263;74040;-33
2023/12/02 03:59:21;;;;;;;5.90;5.30;;;;;;;17.11;52.42;96812.27;105281;1261;65132;-33
2023/12/02 04:01:49;;;;;;;5.30;4.80;;;;;;;17.10;52.47;96808.24;105368;1261;71787;-32
2023/12/02 04:04:18;;;;;;;5.70;5.10;;;;;;;17.10;52.46;96795.09;105274;1261;61244;-33
2023/12/02 04:06:45;;;;;;;6.40;5.30;;;;;;;17.09;52.54;96789.77;105461;1261;61369;-32
2023/12/02 04:09:12;;;;;;;5.50;5.00;;;;;;;17.10;52.45;96783.11;105302;1258;74400;-33
2023/12/02 04:11:40;;;;;;;5.20;4.70;;;;;;;17.09;52.49;96785.67;105341;1262;66108;-33
2023/12/02 04:14:07;;;;;;;5.70;5.10;;;;;;;17.09;52.51;96785.44;105342;1260;72363;-34
2023/12/02 04:16:35;;;;;;;6.60;5.20;;;;;;;17.09;52.44;96787.52;105242;1261;61229;-33
2023/12/02 04:19:03;;;;;;;5.30;4.80;;;;;;;17.09;52.47;96784.04;105078;1264;61324;-33
2023/12/02 04:21:31;;;;;;;5.70;5.10;;;;;;;17.08;52.43;96774.91;105608;1258;74661;-33
2023/12/02 04:23:59;;;;;;;6.20;5.40;;;;;;;17.08;52.51;96776.83;105255;1262;66329;-32
2023/12/02 04:26:26;;;;;;;5.30;4.80;;;;;;;17.08;52.48;96775.05;105202;1262;72826;-31
2023/12/02 04:28:54;;;;;;;5.30;4.80;;;;;;;17.08;52.46;96775.05;105102;1262;61260;-31
2023/12/02 04:31:21;;;;;;;5.40;4.80;;;;;;;17.08;52.50;96776.52;105331;1262;61940;-31
2023/12/02 04:33:49;;;;;;;5.30;4.80;;;;;;;17.08;52.43;96778.52;105325;1262;74598;-30
2023/12/02 04:36:16;;;;;;;5.30;4.80;;;;;;;17.07;52.48;96773.73;105408;1260;65501;-33
2023/12/02 04:38:44;;;;;;;5.60;4.70;;;;;;;17.07;52.48;96777.13;105396;1261;72603;-32
2023/12/02 04:41:11;;;;;;;5.10;4.60;;;;;;;17.07;52.53;96778.05;105412;1261;61277;-32
2023/12/02 04:43:38;;;;;;;5.40;4.90;;;;;;;17.06;52.48;96776.81;105308;1261;61371;-32
2023/12/02 04:46:07;;;;;;;5.50;4.90;;;;;;;17.07;52.50;96780.84;105510;1257;74435;-33
2023/12/02 04:48:34;;;;;;;5.10;4.60;;;;;;;17.06;52.57;96778.28;105407;1263;64930;-33
2023/12/02 04:51:02;;;;;;;5.20;4.70;;;;;;;17.06;52.46;96782.20;105520;1262;72450;-32
2023/12/02 04:53:29;;;;;;;4.80;4.40;;;;;;;17.06;52.49;96778.11;105451;1271;61241;-34
2023/12/02 04:55:56;;;;;;;5.40;4.90;;;;;;;17.06;52.47;96777.88;105378;1261;61245;-33
2023/12/02 04:58:24;;;;;;;5.40;4.60;;;;;;;17.06;52.50;96779.58;105196;1260;74665;-32
2023/12/02 05:00:51;;;;;;;5.70;5.10;;;;;;;17.05;52.49;96781.73;105214;1258;66303;-33
2023/12/02 05:03:18;;;;;;;6.00;5.20;;;;;;;17.04;52.45;96781.11;105338;1257;72598;-33
2023/12/02 05:05:46;;;;;;;5.60;5.00;;;;;;;17.05;52.53;96785.21;105148;1260;61284;-33
2023/12/02 05:08:13;;;;;;;5.30;4.80;;;;;;;17.04;52.51;96785.05;105237;1261;61339;-32
2023/12/02 05:10:40;;;;;;;5.30;4.80;;;;;;;17.04;52.43;96779.48;105411;1262;75560;-33
2023/12/02 05:13:08;;;;;;;5.30;4.80;;;;;;;17.04;52.45;96779.23;105439;1261;66804;-34
2023/12/02 05:15:35;;;;;;;5.40;4.80;;;;;;;17.03;52.51;96781.16;105387;1260;72684;-33
2023/12/02 05:18:03;;;;;;;4.70;4.20;;;;;;;17.03;52.48;96777.45;105364;1257;61170;-34
2023/12/02 05:20:30;;;;;;;6.60;4.50;;;;;;;17.03;52.44;96774.04;105817;1262;61378;-32
2023/12/02 05:22:58;;;;;;;5.20;4.70;;;;;;;17.03;52.50;96777.98;105272;1262;74410;-33
2023/12/02 05:25:25;;;;;;;6.10;4.70;;;;;;;17.03;52.50;96783.94;105140;1261;65923;-33
2023/12/02 05:27:52;;;;;;;5.20;4.40;;;;;;;17.03;52.47;96788.41;105294;1262;72610;-33
2023/12/02 05:30:20;;;;;;;7.10;4.50;;;;;;;17.02;52.49;96780.77;105254;1271;61249;-32
2023/12/02 05:32:48;;;;;;;5.40;4.90;;;;;;;17.03;52.50;96780.28;105267;1261;61367;-32
2023/12/02 05:35:15;;;;;;;4.70;4.20;;;;;;;17.02;52.51;96780.44;105269;1260;74564;-34
2023/12/02 05:37:42;;;;;;;5.20;4.70;;;;;;;17.01;52.53;96784.14;105172;1260;66240;-34
2023/12/02 05:40:10;;;;;;;5.20;4.70;;;;;;;17.01;52.47;96778.04;105270;1258;72577;-33
2023/12/02 05:42:37;;;;;;;4.80;4.40;;;;;;;17.02;52.52;96774.95;105303;1258;61423;-32
2023/12/02 05:45:06;;;;;;;5.10;4.60;;;;;;;17.01;52.50;96772.31;105293;1257;61317;-32
2023/12/02 05:47:33;;;;;;;5.80;4.40;;;;;;;17.01;52.49;96771.99;105304;1258;73019;-32
2023/12/02 05:50:01;;;;;;;5.60;4.70;;;;;;;17.01;52.51;96776.55;105481;1260;65966;-32
2023/12/02 05:52:29;;;;;;;5.00;4.50;;;;;;;17.01;52.53;96774.08;105481;1260;71412;-34
2023/12/02 05:54:56;;;;;;;4.70;4.30;;;;;;;17.01;52.52;96768.44;105304;1261;61245;-33
2023/12/02 05:57:23;;;;;;;8.00;4.90;;;;;;;17.01;52.46;96758.86;105457;1257;61211;-33
2023/12/02 05:59:50;;;;;;;4.50;4.10;;;;;;;17.00;52.51;96757.54;105328;1261;74645;-33
2023/12/02 06:02:18;;;;;;;5.10;4.60;;;;;;;17.00;52.53;96754.28;105206;1260;66097;-32
2023/12/02 06:04:45;;;;;;;4.40;4.00;;;;;;;17.00;52.42;96748.58;105351;1257;72605;-33
2023/12/02 06:07:13;;;;;;;5.10;4.60;;;;;;;16.99;52.40;96739.98;105242;1261;61266;-32
2023/12/02 06:09:43;;;;;;;6.20;4.50;;;;;;;16.99;52.45;96737.73;105270;1257;61341;-32
2023/12/02 06:12:11;;;;;;;4.90;4.40;;;;;;;16.99;52.55;96730.46;105141;1261;74659;-32
2023/12/02 06:14:39;;;;;;;5.10;4.60;;;;;;;16.98;52.40;96732.40;105317;1260;66212;-32
2023/12/02 06:17:07;;;;;;;5.00;4.50;;;;;;;16.98;52.42;96722.34;105333;1262;73082;-33
2023/12/02 06:19:34;;;;;;;5.00;4.30;;;;;;;16.98;52.41;96739.73;105399;1260;61238;-33
2023/12/02 06:22:03;;;;;;;4.70;4.30;;;;;;;16.98;52.45;96725.52;105355;1257;61348;-34
2023/12/02 06:24:30;;;;;;;5.20;4.50;;;;;;;16.98;52.51;96718.95;105169;1261;74520;-32
2023/12/02 06:26:58;;;;;;;5.70;4.90;;;;;;;16.97;52.37;96727.81;105231;1262;65924;-33
2023/12/02 06:29:25;;;;;;;5.40;4.90;;;;;;;16.97;52.41;96719.70;105169;1261;72760;-33
2023/12/02 06:31:53;;;;;;;5.50;5.00;;;;;;;16.96;52.44;96721.38;105237;1261;61243;-32
2023/12/02 06:34:21;;;;;;;8.60;5.10;;;;;;;16.96;52.44;96713.34;105313;1258;61367;-32
2023/12/02 06:36:48;;;;;;;10.50;5.10;;;;;;;16.96;52.46;96719.21;105221;1269;74436;-32
2023/12/02 06:39:16;;;;;;;5.50;5.00;;;;;;;16.96;52.43;96716.65;105480;1258;64212;-34
2023/12/02 06:41:44;;;;;;;5.70;4.90;;;;;;;16.96;52.50;96712.09;105187;1258;72613;-32
2023/12/02 06:44:11;;;;;;;7.30;4.70;;;;;;;16.96;52.52;96702.59;105361;1260;61237;-33
2023/12/02 06:46:38;;;;;;;6.90;4.90;;;;;;;16.96;52.48;96710.85;105383;1257;61349;-33
2023/12/02 06:49:06;;;;;;;6.90;4.90;;;;;;;16.96;52.48;96711.95;105414;1261;74209;-33
2023/12/02 06:51:34;;;;;;;6.80;4.80;;;;;;;16.96;52.44;96722.23;105255;1261;67270;-31
2023/12/02 06:54:01;;;;;;;7.30;5.10;;;;;;;16.95;52.40;96719.89;105064;1260;72603;-33
2023/12/02 06:56:29;;;;;;;5.40;4.80;;;;;;;16.95;52.48;96725.38;105116;1261;61247;-32
2023/12/02 06:58:57;;;;;;;5.50;4.70;;;;;;;16.95;52.51;96732.50;105026;1261;240701;-31
2023/12/02 07:01:27;;;;;;;7.70;5.20;;;;;;;16.96;52.51;96735.81;105270;1261;74394;-31
2023/12/02 07:03:55;;;;;;;4.80;4.40;;;;;;;16.96;52.44;96720.52;106698;1257;64658;-31
2023/12/02 07:06:23;;;;;;;7.00;4.70;;;;;;;16.95;52.49;96711.16;105289;1257;72596;-34
2023/12/02 07:08:50;;;;;;;6.60;4.90;;;;;;;16.96;52.56;96714.58;105245;1260;61348;-31
2023/12/02 07:11:18;;;;;;;5.90;4.90;;;;;;;16.96;52.51;96703.75;105249;1260;61305;-31
2023/12/02 07:13:45;;;;;;;5.40;4.90;;;;;;;16.96;52.49;96701.27;105176;1261;74364;-33
2023/12/02 07:16:13;;;;;;;5.90;4.70;;;;;;;16.96;52.43;96700.29;105350;1261;66641;-33
2023/12/02 07:18:41;;;;;;;6.60;4.70;;;;;;;16.96;52.43;96687.68;105141;1257;72672;-31
2023/12/02 07:21:09;;;;;;;6.60;5.10;;;;;;;16.96;52.39;96693.47;105232;1261;61234;-32
2023/12/02 07:23:36;;;;;;;6.10;5.30;;;;;;;16.96;52.49;96698.48;105339;1258;61326;-31
2023/12/02 07:26:04;;;;;;;7.20;4.90;;;;;;;16.96;52.45;96700.98;105419;1257;74412;-34
2023/12/02 07:28:32;;;;;;;6.20;5.10;;;;;;;16.97;52.56;96707.56;105366;1261;66340;-33
2023/12/02 07:30:59;;;;;;;5.60;4.70;;;;;;;16.96;52.55;96704.38;105442;1261;72591;-31
2023/12/02 07:33:26;;;;;;;6.20;4.90;;;;;;;16.97;52.53;96696.52;105274;1260;61301;-32
2023/12/02 07:35:54;;;;;;;5.60;4.30;;;;;;;16.97;52.51;96710.19;105331;1258;61285;-32
2023/12/02 07:38:21;;;;;;;7.20;4.70;;;;;;;16.97;52.43;96711.51;105166;1260;74881;-33
2023/12/02 07:40:48;;;;;;;5.80;4.70;;;;;;;16.97;52.53;96710.58;105166;1264;65343;-31
2023/12/02 07:43:16;;;;;;;6.40;4.50;;;;;;;16.97;52.50;96711.36;105194;1257;72522;-33
2023/12/02 07:45:43;;;;;;;8.90;4.90;;;;;;;16.97;52.55;96711.74;105128;1258;61334;-32
2023/12/02 07:48:10;;;;;;;6.90;4.30;;;;;;;16.98;52.57;96703.02;105319;1259;61389;-31
2023/12/02 07:50:39;;;;;;;5.40;4.90;;;;;;;16.97;52.59;96700.55;105919;1262;74326;-31
2023/12/02 07:53:06;;;;;;;5.60;5.00;;;;;;;16.98;52.50;96701.94;105118;1262;66246;-33
2023/12/02 07:55:33;;;;;;;5.70;4.40;;;;;;;16.98;52.52;96709.28;105853;1258;72971;-32
2023/12/02 07:58:01;;;;;;;5.80;4.60;;;;;;;16.98;52.56;96710.29;105429;1260;61203;-33
2023/12/02 08:00:29;;;;;;;6.10;4.30;;;;;;;16.99;52.52;96703.88;105471;1258;61164;-32
2023/12/02 08:02:57;;;;;;;5.80;4.30;;;;;;;16.98;52.61;96702.48;105270;1261;74591;-33
2023/12/02 08:05:24;;;;;;;5.90;4.50;;;;;;;16.99;52.59;96717.48;105180;1260;66155;-32
2023/12/02 08:07:54;;;;;;;5.00;4.50;;;;;;;16.99;52.66;96725.91;105187;1260;71271;-31
2023/12/02 08:10:22;;;;;;;5.40;4.80;;;;;;;16.99;52.64;96729.77;105360;1260;62009;-34
2023/12/02 08:12:50;;;;;;;4.40;4.00;;;;;;;16.99;52.71;96719.33;105578;1257;61250;-33
2023/12/02 08:15:17;;;;;;;4.90;4.40;;;;;;;16.99;52.66;96727.92;105098;1261;74653;-32
2023/12/02 08:17:46;;;;;;;4.90;4.40;;;;;;;16.99;52.67;96730.25;105162;1261;65705;-31
2023/12/02 08:20:14;;;;;;;6.40;4.40;;;;;;;16.99;52.67;96754.04;105293;1257;72394;-32
2023/12/02 08:22:41;;;;;;;5.80;4.30;;;;;;;17.00;52.82;96753.05;105278;1261;61215;-31
2023/12/02 08:25:08;;;;;;;5.80;3.90;;;;;;;17.00;52.90;96745.01;105262;1257;61335;-32
2023/12/02 08:27:36;;;;;;;6.30;4.20;;;;;;;17.00;52.86;96738.23;105425;1261;74322;-34
2023/12/02 08:30:07;;;;;;;4.30;3.80;;;;;;;17.00;52.92;96731.42;105336;1261;66270;-33
2023/12/02 08:32:35;;;;;;;4.50;3.70;;;;;;;17.01;52.97;96725.94;105321;1258;72577;-34
2023/12/02 08:35:02;;;;;;;5.70;3.90;;;;;;;17.00;52.93;96719.05;105152;1260;61361;-33
2023/12/02 08:37:30;;;;;;;4.70;4.20;;;;;;;17.01;52.91;96720.84;105236;1258;61346;-31
2023/12/02 08:39:57;;;;;;;4.70;4.20;;;;;;;17.01;52.97;96733.27;105238;1257;74584;-31
2023/12/02 08:42:24;;;;;;;4.60;4.20;;;;;;;17.01;52.93;96723.54;105360;1260;65275;-31
2023/12/02 08:44:52;;;;;;;4.00;3.60;;;;;;;17.01;53.00;96721.69;105388;1258;72596;-32
2023/12/02 08:47:19;;;;;;;4.30;3.80;;;;;;;17.01;52.96;96713.49;105177;1260;61348;-32
2023/12/02 08:49:47;;;;;;;5.60;3.80;;;;;;;17.01;53.11;96717.06;105151;1257;61373;-32
2023/12/02 08:52:14;;;;;;;5.00;3.90;;;;;;;17.02;53.15;96712.98;105242;1258;74625;-32
2023/12/02 08:54:41;;;;;;;4.90;4.00;;;;;;;17.02;53.30;96721.86;105125;1260;65789;-32
2023/12/02 08:57:09;;;;;;;5.00;4.00;;;;;;;17.02;53.34;96714.52;105190;1258;72546;-31
2023/12/02 08:59:36;;;;;;;4.20;3.70;;;;;;;17.03;53.37;96714.14;105225;1261;61267;-32
2023/12/02 09:02:05;;;;;;;4.20;3.80;;;;;;;17.03;53.43;96714.23;105284;1257;61351;-32
2023/12/02 09:04:33;;;;;;;4.40;3.60;;;;;;;17.03;53.44;96716.39;105193;1257;73089;-31
2023/12/02 09:07:00;;;;;;;4.20;3.80;;;;;;;17.04;53.54;96706.83;105216;1260;65392;-32
2023/12/02 09:09:28;;;;;;;4.00;3.60;;;;;;;17.05;53.60;96700.98;105245;1260;72476;-33
2023/12/02 09:11:56;;;;;;;4.10;3.40;;;;;;;17.05;53.63;96699.96;105334;1257;61341;-31
2023/12/02 09:14:23;;;;;;;4.40;3.40;;;;;;;17.06;53.73;96705.85;105424;1261;61270;-32
2023/12/02 09:16:51;;;;;;;4.20;3.70;;;;;;;17.07;53.68;96698.52;105131;1260;74626;-31
2023/12/02 09:19:40;;;;;;;3.90;3.50;;;;;;;17.07;53.73;96705.33;105187;1260;66184;-31
2023/12/02 09:22:21;;;;;;;4.20;3.60;;;;;;;17.08;53.88;96718.63;105331;1256;72606;-33
2023/12/02 09:24:48;;;;;;;6.70;4.00;;;;;;;17.08;54.08;96704.17;105418;1260;61820;-31
2023/12/02 09:27:44;;;;;;;4.10;3.40;;;;;;;17.08;54.16;96692.96;105304;1257;61350;-32
2023/12/02 09:30:12;;;;;;;4.50;4.10;;;;;;;17.08;54.20;96684.16;105280;1260;74744;-31
2023/12/02 09:32:45;;;;;;;8.00;4.10;;;;;;;17.08;54.25;96685.80;105179;1256;66395;-32
2023/12/02 09:35:12;;;;;;;5.00;4.00;;;;;;;17.09;54.41;96670.42;105219;1257;71694;-32
2023/12/02 09:37:56;;;;;;;4.10;3.70;;;;;;;17.09;54.42;96678.23;105468;1260;61334;-32
2023/12/02 09:40:36;;;;;;;5.50;3.70;;;;;;;17.09;54.47;96674.76;105354;1257;61267;-31
2023/12/02 09:43:23;;;;;;;5.30;3.70;;;;;;;17.10;54.41;96671.73;105516;1256;73248;-33
2023/12/02 09:46:05;;;;;;;4.20;3.80;;;;;;;17.10;54.45;96671.05;105290;1260;66122;-32
2023/12/02 09:48:52;;;;;;;5.50;4.00;;;;;;;17.10;54.41;96662.92;105224;1256;72419;-32
2023/12/02 09:51:35;;;;;;;4.50;3.60;;;;;;;17.10;54.43;96658.37;105341;1256;61355;-31
2023/12/02 09:54:20;;;;;;;4.20;3.80;;;;;;;17.09;54.40;96647.33;105323;1257;61321;-31
2023/12/02 09:56:54;;;;;;;4.50;3.90;;;;;;;17.11;54.41;96645.24;105297;1260;74594;-32
2023/12/02 09:59:32;;;;;;;3.80;3.40;;;;;;;17.10;54.46;96637.13;105521;1261;66280;-32
2023/12/02 10:02:11;;;;;;;4.80;3.60;;;;;;;17.10;54.42;96656.29;105308;1257;72638;-32
2023/12/02 10:04:45;;;;;;;4.00;3.60;;;;;;;17.11;54.45;96628.79;105267;1261;61891;-30
2023/12/02 10:07:25;;;;;;;3.90;3.50;;;;;;;17.11;54.37;96640.31;105237;1258;61309;-31
2023/12/02 10:10:08;;;;;;;4.50;3.40;;;;;;;17.11;54.32;96640.69;105206;1261;74504;-33
2023/12/02 10:13:02;;;;;;;4.10;3.30;;;;;;;17.11;54.25;96646.95;105325;1260;66819;-32
2023/12/02 10:15:32;;;;;;;4.00;3.60;;;;;;;17.11;54.18;96640.24;105328;1257;72320;-32
2023/12/02 10:18:02;;;;;;;4.40;3.60;;;;;;;17.11;54.22;96648.42;105484;1257;61312;-32
2023/12/02 10:20:29;;;;;;;3.80;3.40;;;;;;;17.11;54.18;96647.27;105769;1258;61189;-32
2023/12/02 10:23:26;;;;;;;4.20;3.80;;;;;;;17.11;54.14;96636.99;105106;1257;75799;-33
2023/12/02 10:25:59;;;;;;;3.60;3.20;;;;;;;17.11;54.14;96638.07;105137;1261;67501;-30
2023/12/02 10:28:59;;;;;;;3.90;3.40;;;;;;;17.11;54.15;96629.27;106260;1259;71581;-31
2023/12/02 10:31:30;;;;;;;3.80;3.30;;;;;;;17.12;54.01;96611.65;105326;1261;61248;-33
2023/12/02 10:34:22;;;;;;;3.70;3.40;;;;;;;17.11;54.13;96613.19;105153;1257;61369;-32
2023/12/02 10:36:50;;;;;;;5.60;3.40;;;;;;;17.12;54.06;96603.77;105146;1258;75434;-32
2023/12/02 10:39:31;;;;;;;4.00;3.40;;;;;;;17.12;54.02;96602.23;105045;1261;64884;-31
2023/12/02 10:42:03;;;;;;;5.80;3.70;;;;;;;17.12;53.99;96611.66;105470;1257;73280;-32
2023/12/02 10:44:32;;;;;;;3.80;3.30;;;;;;;17.12;54.02;96615.91;105196;1261;61511;-32
2023/12/02 10:47:00;;;;;;;4.80;3.40;;;;;;;17.12;53.98;96612.20;105441;1260;61255;-31
2023/12/02 10:49:28;;;;;;;4.00;3.40;;;;;;;17.12;53.92;96602.61;105208;1257;74555;-33
2023/12/02 10:51:57;;;;;;;3.60;3.00;;;;;;;17.12;53.94;96596.44;105363;1261;66412;-31
2023/12/02 10:54:39;;;;;;;5.30;3.50;;;;;;;17.11;53.86;96600.90;105184;1257;72638;-30
2023/12/02 10:57:07;;;;;;;4.10;3.00;;;;;;;17.12;53.93;96596.80;105157;1261;61201;-31
2023/12/02 10:59:55;;;;;;;4.60;3.10;;;;;;;17.11;53.92;96602.21;105203;1259;61334;-31
2023/12/02 11:02:26;;;;;;;4.20;3.80;;;;;;;17.11;53.89;96593.01;105232;1260;75374;-31
2023/12/02 11:05:21;;;;;;;4.00;3.20;;;;;;;17.11;53.83;96588.98;105243;1260;65923;-32
2023/12/02 11:07:52;;;;;;;3.90;3.50;;;;;;;17.10;53.94;96594.62;105309;1260;72688;-31
2023/12/02 11:10:43;;;;;;;3.40;2.90;;;;;;;17.11;53.92;96593.02;105258;1258;61170;-32
2023/12/02 11:13:12;;;;;;;4.30;3.20;;;;;;;17.10;53.88;96595.16;105308;1257;61460;-33
2023/12/02 11:15:59;;;;;;;3.70;3.30;;;;;;;17.11;53.91;96587.36;105597;1261;74429;-33
2023/12/02 11:18:34;;;;;;;3.40;3.10;;;;;;;17.10;53.85;96586.04;105324;1260;66344;-32
2023/12/02 11:21:03;;;;;;;3.50;3.20;;;;;;;17.11;53.76;96573.61;105454;1257;73069;-38
2023/12/02 11:23:50;;;;;;;5.00;3.20;;;;;;;17.11;53.80;96567.48;105184;1257;61350;-33
2023/12/02 11:26:24;;;;;;;3.60;3.00;;;;;;;17.11;53.79;96548.02;105520;1258;61368;-33
2023/12/02 11:29:15;;;;;;;3.40;3.10;;;;;;;17.10;53.74;96546.31;105250;1258;74620;-33
2023/12/02 11:32:10;;;;;;;3.40;3.10;;;;;;;17.11;53.75;96540.60;105382;1260;66218;-32
2023/12/02 11:34:45;;;;;;;3.50;2.90;;;;;;;17.10;53.74;96547.63;105155;1258;72612;-32